Crystal Falls, MI

6:49 PM CDT on April 29, 2017 (GMT -0500)
Bates Tower | | Change Station

Elev 1765 ft 46.10 °N, 88.54 °W | Updated 10 minutes ago

Partly Cloudy
Partly Cloudy
45.2 °F
Feels Like 43 °F
N
5.0
Wind Variable Wind from NE
Gusts 11.0 mph

Today
High -- | Low -- °F
--% Chance of Precip.
Yesterday
High -- | Low -- °F
Precip. -- in
Pressure 30.31 in
Visibility 10.0 miles
Clouds Clear
Windchill 43 °F
Dew Point 21 °F
Humidity 39%
Rainfall 0.32 in
Snow Depth Not available.
5:42 AM 7:59 PM
Waxing Crescent, 17% visible
METAR KIMT 292254Z AUTO 06009KT 10SM CLR 09/M09 A3027 RMK AO2 SLP264 T00941089
Pressure 30.31 in
Visibility 10.0 miles
Clouds Clear
Windchill 43 °F
Dew Point 21 °F
Humidity 39%
Rainfall 0.32 in
Snow Depth Not available.
5:42 AM 7:59 PM
Waxing Crescent, 17% visible
METAR KIMT 292254Z AUTO 06009KT 10SM CLR 09/M09 A3027 RMK AO2 SLP264 T00941089

Get Severe Weather Alerts

Thanks for signing up!

Be on the lookout for a verification email in your inbox.

You'll start receiving the daily forecast at 8 AM.

×

10-Day Weather Forecast

Almanac

Astronomy

Apr. 29, 2017 Rise Set
Actual Time
Civil Twilight
Nautical Twilight
Astronomical Twilight
Moon
Length of Visible Light
Length of Day
Tomorrow will be .
, % of the Moon is Illuminated

Today's Extremes

State Highs State Lows

Community

WunderPhotos

WunderBlog® & News

Nearby

Air Quality

  Air Quality AQ Index Pollutant
Not available.

Snow Depth

Station Depth Elevation

Earthquake Activity

City Distance Mag. Time & Date
Minimum magnitude displayed is 2.5.

Coastal Water Temperatures

Place Temperature

Stations

Nearby Weather Stations

Station Location Temp. Windchill Dew Point Humidity Wind Precip. Elev Updated Type
                   

Watches & Warnings

There are currently no watches in effect.